Torre De Belem — CSIO — position and weather

sailwx.info

Track history (hours):
 
Tides and Currents Weather Stations Pressure Air Temp Water Temp Dewpoint Dewpoint Depression Visibility Wind Speed Wind Dir Waves Ship Positions

Torre De Belem

Last reported at 2015-Mar-03 05:17 UTC. Time now 2015-Mar-03 07:29 UTC.
Position N 38°42' W 009°25'.

Length 14 m.

MMSI: 263671850.

Date/timePositionNaut miles runAvg speedWind from/ knotsBaromVisibWave heightAir tempDewpointWater temp
2015-Mar-03 05:17N 38°42' W 009°25'0 0.0
2015-Mar-03 02:22N 38°42' W 009°25'0 0.0
2015-Mar-03 01:33N 38°42' W 009°25'0 0.1
2015-Mar-02 20:33N 38°41' W 009°25'0 0.2
2015-Mar-02 18:33N 38°42' W 009°25'0 0.0
2015-Mar-02 17:33N 38°42' W 009°25'5 4.9
2015-Mar-02 16:33N 38°37' W 009°22'5 4.9
2015-Mar-02 15:33N 38°42' W 009°25'1 1.1
2015-Mar-02 14:33N 38°41' W 009°24'1 0.1
2015-Mar-02 05:15N 38°42' W 009°25'0 0.0
2015-Mar-02 02:13N 38°42' W 009°25'2 2.9
2015-Mar-02 01:33N 38°40' W 009°24'2 0.1
2015-Mar-01 12:19N 38°42' W 009°25'0 0.0
2015-Mar-01 11:33N 38°42' W 009°25'0 0.0
2015-Mar-01 10:33N 38°42' W 009°25'0 0.0
2015-Mar-01 04:08N 38°42' W 009°25'0 0.0
2015-Feb-28 21:33N 38°42' W 009°25'0 0.0
2015-Feb-28 18:33N 38°42' W 009°25'2 0.1
2015-Feb-28 00:34N 38°40' W 009°24'2 2.0
2015-Feb-27 23:32N 38°42' W 009°25'0 0.0
2015-Feb-27 22:33N 38°42' W 009°25'0 0.0
2015-Feb-27 21:33N 38°42' W 009°25'0 0.0
2015-Feb-27 20:33N 38°42' W 009°25'0 0.0
2015-Feb-27 19:32N 38°42' W 009°25'0 0.0
2015-Feb-27 18:33N 38°42' W 009°25'0 0.0
2015-Feb-27 17:34N 38°42' W 009°25'0 0.0
2015-Feb-27 16:28N 38°42' W 009°25'0 0.0
2015-Feb-27 15:32N 38°42' W 009°25'4 3.7
2015-Feb-27 14:33N 38°38' W 009°24'8 8.3
2015-Feb-27 13:34N 38°42' W 009°14'0 0.0
2015-Feb-27 12:33N 38°42' W 009°14'0 0.0
2015-Feb-27 11:32N 38°42' W 009°14'8 8.1
2015-Feb-27 10:33N 38°40' W 009°24'2 1.6
2015-Feb-27 09:33N 38°38' W 009°24'3 0.3
2015-Feb-26 22:33N 38°41' W 009°25'1 0.6
2015-Feb-26 21:33N 38°42' W 009°25'0 0.0
2015-Feb-26 12:16N 38°42' W 009°25'0 0.0
2015-Feb-26 11:33N 38°42' W 009°25'0 0.0
2015-Feb-26 06:09N 38°42' W 009°25'1 1.3
2015-Feb-26 05:33N 38°41' W 009°25'3 0.3
2015-Feb-25 20:33N 38°38' W 009°23'4 3.6
2015-Feb-25 19:33N 38°42' W 009°25'0 0.0
2015-Feb-24 14:20N 38°42' W 009°25'0 0.0
2015-Feb-24 13:32N 38°42' W 009°25'2 0.2
2015-Feb-24 04:33N 38°40' W 009°26'2 0.4
2015-Feb-23 23:33N 38°42' W 009°25'0 0.0
2015-Feb-23 17:33N 38°42' W 009°25'1 0.1
2015-Feb-23 10:33N 38°41' W 009°24'4 0.1
2015-Feb-22 07:33N 38°37' W 009°23'5 0.5
2015-Feb-21 20:33N 38°42' W 009°25'0 0.0
2015-Feb-21 07:17N 38°42' W 009°25'  
Track history (hours):
 
Tides and Currents Weather Stations Pressure Air Temp Water Temp Dewpoint Dewpoint Depression Visibility Wind Speed Wind Dir Waves Ship Positions

Torre De Belem

Last reported at 2015-Mar-03 05:17 UTC. Time now 2015-Mar-03 07:29 UTC.
Position N 38°42' W 009°25'.

Length 14 m.

MMSI: 263671850.

Date/timePositionNaut miles runAvg speedWind from/ knotsBaromVisibWave heightAir tempDewpointWater temp
2015-Mar-03 05:17N 38°42' W 009°25'0 0.0
2015-Mar-03 02:22N 38°42' W 009°25'0 0.0
2015-Mar-03 01:33N 38°42' W 009°25'0 0.1
2015-Mar-02 20:33N 38°41' W 009°25'0 0.2
2015-Mar-02 18:33N 38°42' W 009°25'0 0.0
2015-Mar-02 17:33N 38°42' W 009°25'5 4.9
2015-Mar-02 16:33N 38°37' W 009°22'5 4.9
2015-Mar-02 15:33N 38°42' W 009°25'1 1.1
2015-Mar-02 14:33N 38°41' W 009°24'1 0.1
2015-Mar-02 05:15N 38°42' W 009°25'0 0.0
2015-Mar-02 02:13N 38°42' W 009°25'2 2.9
2015-Mar-02 01:33N 38°40' W 009°24'2 0.1
2015-Mar-01 12:19N 38°42' W 009°25'0 0.0
2015-Mar-01 11:33N 38°42' W 009°25'0 0.0
2015-Mar-01 10:33N 38°42' W 009°25'0 0.0
2015-Mar-01 04:08N 38°42' W 009°25'0 0.0
2015-Feb-28 21:33N 38°42' W 009°25'0 0.0
2015-Feb-28 18:33N 38°42' W 009°25'2 0.1
2015-Feb-28 00:34N 38°40' W 009°24'2 2.0
2015-Feb-27 23:32N 38°42' W 009°25'0 0.0
2015-Feb-27 22:33N 38°42' W 009°25'0 0.0
2015-Feb-27 21:33N 38°42' W 009°25'0 0.0
2015-Feb-27 20:33N 38°42' W 009°25'0 0.0
2015-Feb-27 19:32N 38°42' W 009°25'0 0.0
2015-Feb-27 18:33N 38°42' W 009°25'0 0.0
2015-Feb-27 17:34N 38°42' W 009°25'0 0.0
2015-Feb-27 16:28N 38°42' W 009°25'0 0.0
2015-Feb-27 15:32N 38°42' W 009°25'4 3.7
2015-Feb-27 14:33N 38°38' W 009°24'8 8.3
2015-Feb-27 13:34N 38°42' W 009°14'0 0.0
2015-Feb-27 12:33N 38°42' W 009°14'0 0.0
2015-Feb-27 11:32N 38°42' W 009°14'8 8.1
2015-Feb-27 10:33N 38°40' W 009°24'2 1.6
2015-Feb-27 09:33N 38°38' W 009°24'3 0.3
2015-Feb-26 22:33N 38°41' W 009°25'1 0.6
2015-Feb-26 21:33N 38°42' W 009°25'0 0.0
2015-Feb-26 12:16N 38°42' W 009°25'0 0.0
2015-Feb-26 11:33N 38°42' W 009°25'0 0.0
2015-Feb-26 06:09N 38°42' W 009°25'1 1.3
2015-Feb-26 05:33N 38°41' W 009°25'3 0.3
2015-Feb-25 20:33N 38°38' W 009°23'4 3.6
2015-Feb-25 19:33N 38°42' W 009°25'0 0.0
2015-Feb-24 14:20N 38°42' W 009°25'0 0.0
2015-Feb-24 13:32N 38°42' W 009°25'2 0.2
2015-Feb-24 04:33N 38°40' W 009°26'2 0.4
2015-Feb-23 23:33N 38°42' W 009°25'0 0.0
2015-Feb-23 17:33N 38°42' W 009°25'1 0.1
2015-Feb-23 10:33N 38°41' W 009°24'4 0.1
2015-Feb-22 07:33N 38°37' W 009°23'5 0.5
2015-Feb-21 20:33N 38°42' W 009°25'0 0.0
2015-Feb-21 07:17N 38°42' W 009°25'  

Dump ship's entire track history